createdAt,value
2019-01-30T00:00:42.543Z,1.60
2019-01-30T00:03:12.933Z,1.60
2019-01-30T00:05:43.267Z,1.50
2019-01-30T00:08:13.627Z,1.60
2019-01-30T00:10:43.945Z,1.50
2019-01-30T00:13:14.732Z,1.50
2019-01-30T00:15:45.043Z,1.50
2019-01-30T00:18:15.410Z,1.40
2019-01-30T00:20:45.758Z,1.30
2019-01-30T00:23:16.125Z,1.30
2019-01-30T00:25:46.505Z,1.20
2019-01-30T00:28:16.909Z,1.10
2019-01-30T00:30:47.420Z,1.10
2019-01-30T00:33:17.819Z,1.00
2019-01-30T00:35:48.205Z,1.10
2019-01-30T00:38:18.576Z,1.00
2019-01-30T00:40:48.899Z,1.00
2019-01-30T00:43:19.298Z,0.90
2019-01-30T00:45:49.623Z,0.80
2019-01-30T00:48:20.061Z,0.70
2019-01-30T00:50:50.470Z,0.70
2019-01-30T00:53:20.826Z,0.70
2019-01-30T00:55:51.146Z,0.60
2019-01-30T00:58:21.460Z,0.50
2019-01-30T01:00:51.772Z,0.50
2019-01-30T01:03:22.104Z,0.50
2019-01-30T01:05:52.422Z,0.50
2019-01-30T01:08:22.826Z,0.50
2019-01-30T01:10:53.130Z,0.40
2019-01-30T01:13:23.596Z,0.40
2019-01-30T01:15:53.956Z,0.40
2019-01-30T01:18:25.233Z,0.30
2019-01-30T01:20:55.632Z,0.30
2019-01-30T01:23:25.979Z,0.20
2019-01-30T01:25:56.336Z,0.20
2019-01-30T01:28:26.658Z,0.10
2019-01-30T01:30:56.944Z,0.10
2019-01-30T01:33:28.470Z,0.00
2019-01-30T01:35:58.854Z,-0.10
2019-01-30T01:38:29.176Z,-0.10
2019-01-30T01:40:59.544Z,-0.10
2019-01-30T01:43:29.878Z,-0.10
2019-01-30T01:46:00.266Z,-0.20
2019-01-30T01:48:30.900Z,-0.20
2019-01-30T01:51:01.357Z,-0.30
2019-01-30T01:53:31.619Z,-0.30
2019-01-30T01:56:01.957Z,-0.30
2019-01-30T01:58:32.302Z,-0.30
2019-01-30T02:01:02.837Z,-0.30
2019-01-30T02:03:33.242Z,-0.30
2019-01-30T02:06:03.597Z,-0.40
2019-01-30T02:08:33.942Z,-0.40
2019-01-30T02:11:05.524Z,-0.40
2019-01-30T02:13:35.820Z,-0.40
2019-01-30T02:16:06.320Z,-0.40
2019-01-30T02:18:38.000Z,-0.40
2019-01-30T02:21:09.397Z,-0.50
2019-01-30T02:23:39.772Z,-0.50
2019-01-30T02:26:10.177Z,-0.50
2019-01-30T02:28:40.634Z,-0.50
2019-01-30T02:31:10.974Z,-0.50
2019-01-30T02:33:41.354Z,-0.60
2019-01-30T02:36:11.788Z,-0.60
2019-01-30T02:38:42.104Z,-0.60
2019-01-30T02:41:12.551Z,-0.60
2019-01-30T02:43:42.934Z,-0.60
2019-01-30T02:46:25.383Z,-0.70
2019-01-30T02:48:57.012Z,-0.70
2019-01-30T02:51:27.352Z,-0.70
2019-01-30T02:53:57.710Z,-0.70
2019-01-30T02:56:28.020Z,-0.70
2019-01-30T02:58:58.379Z,-0.70
2019-01-30T03:01:28.820Z,-0.70
2019-01-30T03:03:59.204Z,-0.70
2019-01-30T03:06:29.543Z,-0.70
2019-01-30T03:08:59.887Z,-0.70
2019-01-30T03:11:30.240Z,-0.70
2019-01-30T03:14:00.567Z,-0.70
2019-01-30T03:16:31.131Z,-0.70
2019-01-30T03:19:02.725Z,-0.70
2019-01-30T03:21:33.074Z,-0.70
2019-01-30T03:24:03.453Z,-0.70
2019-01-30T03:26:33.826Z,-0.70
2019-01-30T03:29:04.154Z,-0.70
2019-01-30T03:31:34.551Z,-0.70
2019-01-30T03:34:04.889Z,-0.80
2019-01-30T03:36:35.284Z,-0.80
2019-01-30T03:39:08.156Z,-0.80
2019-01-30T03:41:38.554Z,-0.80
2019-01-30T03:44:08.913Z,-0.80
2019-01-30T03:46:39.274Z,-0.80
2019-01-30T03:49:10.442Z,-0.80
2019-01-30T03:51:40.792Z,-0.80
2019-01-30T03:54:11.144Z,-0.80
2019-01-30T03:56:41.486Z,-0.80
2019-01-30T03:59:11.859Z,-0.80
2019-01-30T04:01:42.169Z,-0.80
2019-01-30T04:04:12.540Z,-0.80
2019-01-30T04:06:42.947Z,-0.90
2019-01-30T04:09:13.390Z,-0.90
2019-01-30T04:11:43.749Z,-0.90
2019-01-30T04:14:14.078Z,-0.90
2019-01-30T04:16:44.601Z,-0.90
2019-01-30T04:19:16.116Z,-0.90
2019-01-30T04:21:46.635Z,-0.90
2019-01-30T04:24:16.962Z,-0.80
2019-01-30T04:26:47.328Z,-0.80
2019-01-30T04:29:17.631Z,-0.80
2019-01-30T04:31:48.003Z,-0.90
2019-01-30T04:34:18.320Z,-0.90
2019-01-30T04:36:48.647Z,-0.90
2019-01-30T04:39:18.939Z,-0.80
2019-01-30T04:41:49.316Z,-0.80
2019-01-30T04:44:19.731Z,-0.80
2019-01-30T04:46:50.113Z,-0.80
2019-01-30T04:49:20.524Z,-0.80
2019-01-30T04:51:50.828Z,-0.70
2019-01-30T04:54:21.144Z,-0.70
2019-01-30T04:56:51.490Z,-0.70
2019-01-30T04:59:21.864Z,-0.60
2019-01-30T05:01:52.189Z,-0.60
2019-01-30T05:04:22.531Z,-0.60
2019-01-30T05:06:52.932Z,-0.60
2019-01-30T05:09:24.255Z,-0.50
2019-01-30T05:11:54.605Z,-0.50
2019-01-30T05:14:24.978Z,-0.50
2019-01-30T05:16:55.321Z,-0.40
2019-01-30T05:19:26.041Z,-0.40
2019-01-30T05:21:56.416Z,-0.40
2019-01-30T05:24:26.753Z,-0.40
2019-01-30T05:26:57.083Z,-0.40
2019-01-30T05:29:27.444Z,-0.40
2019-01-30T05:32:01.299Z,-0.30
2019-01-30T05:34:29.909Z,-0.30
2019-01-30T05:37:00.344Z,-0.30
2019-01-30T05:39:30.739Z,-0.30
2019-01-30T05:42:01.144Z,-0.30
2019-01-30T05:44:31.562Z,-0.20
2019-01-30T05:47:01.988Z,-0.20
2019-01-30T05:49:33.833Z,-0.10
2019-01-30T05:52:05.728Z,0.00
2019-01-30T05:54:36.327Z,-0.10
2019-01-30T05:57:06.746Z,-0.20
2019-01-30T05:59:37.149Z,-0.20
2019-01-30T06:02:12.115Z,-0.10
2019-01-30T06:04:39.492Z,-0.10
2019-01-30T06:07:09.854Z,0.00
2019-01-30T06:09:40.307Z,0.00
2019-01-30T06:12:10.679Z,0.00
2019-01-30T06:14:42.060Z,-0.10
2019-01-30T06:17:12.375Z,-0.10
2019-01-30T06:19:42.769Z,0.00
2019-01-30T06:22:13.178Z,0.00
2019-01-30T06:24:43.522Z,0.10
2019-01-30T06:27:13.933Z,0.20
2019-01-30T06:29:44.225Z,0.20
2019-01-30T06:32:21.679Z,0.10
2019-01-30T06:34:46.582Z,0.20
2019-01-30T06:37:18.351Z,0.20
2019-01-30T06:39:48.825Z,0.20
2019-01-30T06:42:19.296Z,0.20
2019-01-30T06:44:49.667Z,0.20
2019-01-30T06:47:20.042Z,0.40
2019-01-30T06:49:50.403Z,0.40
2019-01-30T06:52:20.765Z,0.40
2019-01-30T06:54:51.889Z,0.30
2019-01-30T06:57:22.219Z,0.30
2019-01-30T06:59:52.625Z,0.30
2019-01-30T07:02:32.049Z,0.40
2019-01-30T07:04:54.930Z,0.40
2019-01-30T07:07:25.237Z,0.50
2019-01-30T07:09:55.604Z,0.50
2019-01-30T07:12:25.936Z,0.50
2019-01-30T07:14:56.720Z,0.50
2019-01-30T07:17:27.042Z,0.50
2019-01-30T07:19:57.403Z,0.50
2019-01-30T07:22:27.756Z,0.50
2019-01-30T07:24:58.573Z,0.50
2019-01-30T07:27:29.017Z,0.50
2019-01-30T07:29:59.284Z,0.50
2019-01-30T07:32:29.642Z,0.50
2019-01-30T07:34:59.960Z,0.50
2019-01-30T07:37:30.283Z,0.60
2019-01-30T07:40:00.594Z,0.70
2019-01-30T07:42:30.968Z,0.70
2019-01-30T07:45:01.306Z,0.80
2019-01-30T07:47:31.680Z,0.80
2019-01-30T07:50:01.978Z,1.00
2019-01-30T07:52:32.843Z,1.00
2019-01-30T07:55:03.334Z,1.10
2019-01-30T07:57:34.899Z,1.10
2019-01-30T08:00:10.603Z,1.10
2019-01-30T08:02:40.715Z,1.20
2019-01-30T08:05:11.248Z,1.20
2019-01-30T08:07:41.608Z,1.30
2019-01-30T08:10:12.932Z,1.30
2019-01-30T08:12:43.398Z,1.40
2019-01-30T08:15:15.401Z,1.50
2019-01-30T08:17:45.761Z,1.50
2019-01-30T08:20:18.085Z,1.40
2019-01-30T08:22:48.644Z,1.40
2019-01-30T08:25:21.874Z,1.40
2019-01-30T08:27:53.574Z,1.40
2019-01-30T08:30:28.961Z,1.40
2019-01-30T08:33:04.605Z,1.50
2019-01-30T08:35:35.556Z,1.60
2019-01-30T08:38:07.002Z,1.60
2019-01-30T08:40:37.511Z,1.60
2019-01-30T08:43:07.868Z,1.60
2019-01-30T08:45:38.311Z,1.50
2019-01-30T08:48:08.620Z,1.50
2019-01-30T08:50:38.985Z,1.50
2019-01-30T08:53:09.338Z,1.50
2019-01-30T08:55:40.167Z,1.50
2019-01-30T08:58:10.545Z,1.70
2019-01-30T09:00:40.876Z,1.80
2019-01-30T09:03:14.818Z,1.80
2019-01-30T09:05:44.152Z,1.80
2019-01-30T09:08:14.527Z,1.90
2019-01-30T09:10:44.834Z,1.90
2019-01-30T09:13:15.154Z,2.00
2019-01-30T09:15:45.521Z,2.00
2019-01-30T09:18:15.850Z,2.10
2019-01-30T09:20:46.225Z,2.10
2019-01-30T09:23:16.530Z,2.20
2019-01-30T09:25:46.934Z,2.20
2019-01-30T09:28:17.264Z,2.20
2019-01-30T09:30:47.656Z,2.30
2019-01-30T09:33:25.698Z,2.40
2019-01-30T09:35:50.229Z,2.40
2019-01-30T09:38:20.561Z,2.30
2019-01-30T09:40:50.912Z,2.40
2019-01-30T09:43:21.266Z,2.40
2019-01-30T09:45:51.569Z,2.40
2019-01-30T09:48:21.982Z,2.40
2019-01-30T09:50:52.252Z,2.40
2019-01-30T09:53:22.616Z,2.50
2019-01-30T09:55:53.431Z,2.60
2019-01-30T09:58:24.742Z,2.70
2019-01-30T10:00:55.080Z,2.70
2019-01-30T10:03:35.755Z,2.80
2019-01-30T10:05:57.373Z,2.80
2019-01-30T10:08:27.714Z,2.80
2019-01-30T10:10:58.035Z,2.90
2019-01-30T10:13:28.365Z,3.00
2019-01-30T10:15:58.692Z,3.10
2019-01-30T10:18:29.006Z,3.10
2019-01-30T10:20:59.401Z,3.20
2019-01-30T10:23:30.844Z,3.20
2019-01-30T10:26:02.782Z,3.20
2019-01-30T10:28:33.203Z,3.30
2019-01-30T10:31:03.608Z,3.40
2019-01-30T10:33:33.987Z,3.40
2019-01-30T10:36:04.654Z,3.40
2019-01-30T10:38:34.985Z,3.40
2019-01-30T10:41:05.364Z,3.40
2019-01-30T10:43:35.733Z,3.20
2019-01-30T10:46:06.053Z,3.20
2019-01-30T10:48:36.638Z,3.20
2019-01-30T10:51:07.440Z,3.20
2019-01-30T10:53:37.866Z,3.30
2019-01-30T10:56:08.386Z,3.30
2019-01-30T10:58:38.798Z,3.40
2019-01-30T11:01:09.188Z,3.40
2019-01-30T11:03:39.563Z,3.30
2019-01-30T11:06:09.874Z,3.40
2019-01-30T11:08:43.864Z,3.50
2019-01-30T11:11:14.220Z,3.50
2019-01-30T11:13:44.525Z,3.40
2019-01-30T11:16:14.848Z,3.30
2019-01-30T11:18:45.239Z,3.40
2019-01-30T11:21:15.614Z,3.30
2019-01-30T11:23:45.955Z,3.30
2019-01-30T11:26:17.045Z,3.20
2019-01-30T11:28:49.863Z,3.10
2019-01-30T11:31:20.341Z,3.20
2019-01-30T11:33:50.667Z,3.20
2019-01-30T11:36:21.009Z,3.20
2019-01-30T11:38:51.400Z,3.20
2019-01-30T11:41:21.724Z,3.20
2019-01-30T11:43:52.125Z,3.10
2019-01-30T11:46:22.446Z,3.10
2019-01-30T11:48:56.369Z,3.10
2019-01-30T11:51:24.752Z,3.10
2019-01-30T11:53:55.143Z,3.10
2019-01-30T11:56:26.251Z,3.20
2019-01-30T11:58:56.568Z,3.20
2019-01-30T12:01:26.862Z,3.20
2019-01-30T12:03:57.483Z,3.20
2019-01-30T12:06:27.849Z,3.20
2019-01-30T12:08:58.165Z,3.30
2019-01-30T12:11:29.249Z,3.30
2019-01-30T12:13:59.596Z,3.40
2019-01-30T12:16:29.918Z,3.40
2019-01-30T12:19:00.308Z,3.40
2019-01-30T12:21:30.626Z,3.50
2019-01-30T12:24:01.007Z,3.50
2019-01-30T12:26:31.970Z,3.60
2019-01-30T12:29:02.312Z,3.60
2019-01-30T12:31:32.618Z,3.60
2019-01-30T12:34:03.129Z,3.60
2019-01-30T12:36:33.458Z,3.60
2019-01-30T12:39:06.940Z,3.60
2019-01-30T12:41:37.264Z,3.70
2019-01-30T12:44:08.453Z,3.70
2019-01-30T12:46:38.786Z,3.60
2019-01-30T12:49:09.132Z,3.60
2019-01-30T12:51:39.532Z,3.60
2019-01-30T12:54:09.905Z,3.50
2019-01-30T12:56:40.739Z,3.50
2019-01-30T12:59:11.089Z,3.50
2019-01-30T13:01:41.376Z,3.50
2019-01-30T13:04:11.732Z,3.50
2019-01-30T13:06:42.056Z,3.60
2019-01-30T13:09:12.370Z,3.50
2019-01-30T13:11:42.708Z,3.50
2019-01-30T13:14:13.068Z,3.50
2019-01-30T13:16:43.447Z,3.40
2019-01-30T13:19:13.887Z,3.40
2019-01-30T13:21:44.228Z,3.30
2019-01-30T13:24:14.539Z,3.30
2019-01-30T13:26:44.920Z,3.20
2019-01-30T13:29:15.258Z,3.40
2019-01-30T13:31:45.579Z,3.40
2019-01-30T13:34:15.885Z,3.30
2019-01-30T13:36:46.278Z,3.30
2019-01-30T13:39:16.639Z,3.30
2019-01-30T13:41:46.973Z,3.30
2019-01-30T13:44:17.355Z,3.30
2019-01-30T13:46:47.681Z,3.20
2019-01-30T13:49:18.060Z,3.30
2019-01-30T13:51:48.370Z,3.30
2019-01-30T13:54:18.815Z,3.20
2019-01-30T13:56:49.185Z,3.20
2019-01-30T13:59:19.535Z,3.20
2019-01-30T14:01:49.881Z,3.20
2019-01-30T14:04:20.247Z,3.10
2019-01-30T14:06:50.601Z,3.10
2019-01-30T14:09:21.075Z,3.00
2019-01-30T14:11:51.389Z,3.00
2019-01-30T14:14:21.752Z,3.00
2019-01-30T14:16:52.055Z,3.00
2019-01-30T14:19:22.460Z,2.90
2019-01-30T14:21:52.823Z,2.90
2019-01-30T14:24:23.148Z,2.90
2019-01-30T14:26:53.478Z,2.90
2019-01-30T14:29:23.889Z,2.80
2019-01-30T14:31:54.255Z,2.80
2019-01-30T14:34:24.589Z,2.80
2019-01-30T14:36:55.146Z,2.80
2019-01-30T14:39:25.535Z,2.90
2019-01-30T14:41:56.005Z,2.90
2019-01-30T14:44:26.274Z,2.90
2019-01-30T14:46:56.743Z,2.90
2019-01-30T14:49:27.109Z,2.90
2019-01-30T14:51:57.446Z,2.90
2019-01-30T14:54:27.774Z,2.80
2019-01-30T14:56:58.074Z,2.90
2019-01-30T14:59:28.389Z,2.80
2019-01-30T15:01:58.802Z,2.80
2019-01-30T15:04:29.085Z,2.70
2019-01-30T15:06:59.445Z,2.70
2019-01-30T15:09:29.790Z,2.70
2019-01-30T15:12:00.075Z,2.70
2019-01-30T15:14:30.404Z,2.70
2019-01-30T15:17:00.739Z,2.70
2019-01-30T15:19:31.099Z,2.70
2019-01-30T15:22:01.387Z,2.80
2019-01-30T15:24:31.784Z,2.80
2019-01-30T15:27:03.630Z,2.70
2019-01-30T15:29:34.002Z,2.70
2019-01-30T15:32:04.415Z,2.70
2019-01-30T15:34:34.983Z,2.80
2019-01-30T15:37:05.448Z,2.80
2019-01-30T15:39:35.902Z,2.70
2019-01-30T15:42:06.311Z,2.60
2019-01-30T15:44:37.025Z,2.60
2019-01-30T15:47:07.497Z,2.50
2019-01-30T15:49:37.954Z,2.50
2019-01-30T15:52:08.670Z,2.50
2019-01-30T15:54:39.075Z,2.50
2019-01-30T15:57:10.073Z,2.50
2019-01-30T15:59:40.463Z,2.60
2019-01-30T16:02:10.836Z,2.50
2019-01-30T16:04:41.202Z,2.50
2019-01-30T16:07:11.568Z,2.60
2019-01-30T16:09:42.014Z,2.50
2019-01-30T16:12:12.383Z,2.40
2019-01-30T16:14:42.700Z,2.40
2019-01-30T16:17:13.039Z,2.50
2019-01-30T16:19:43.388Z,2.50
2019-01-30T16:22:13.740Z,2.60
2019-01-30T16:24:44.066Z,2.50
2019-01-30T16:27:15.516Z,2.60
2019-01-30T16:29:45.840Z,2.50
2019-01-30T16:32:16.559Z,2.50
2019-01-30T16:34:46.873Z,2.40
2019-01-30T16:37:17.227Z,2.40
2019-01-30T16:39:47.600Z,2.40
2019-01-30T16:42:17.999Z,2.40
2019-01-30T16:44:48.346Z,2.40
2019-01-30T16:47:18.690Z,2.50
2019-01-30T16:49:48.999Z,2.50
2019-01-30T16:52:19.351Z,2.50
2019-01-30T16:54:49.705Z,2.50
2019-01-30T16:57:21.364Z,2.50
2019-01-30T16:59:51.815Z,2.50
2019-01-30T17:02:22.102Z,2.50
2019-01-30T17:04:52.470Z,2.50
2019-01-30T17:07:22.852Z,2.50
2019-01-30T17:09:53.181Z,2.50
2019-01-30T17:12:23.858Z,2.50
2019-01-30T17:14:54.221Z,2.50
2019-01-30T17:17:24.592Z,2.50
2019-01-30T17:19:54.929Z,2.60
2019-01-30T17:22:25.262Z,2.60
2019-01-30T17:24:55.658Z,2.60
2019-01-30T17:27:27.412Z,2.60
2019-01-30T17:29:57.804Z,2.60
2019-01-30T17:32:28.149Z,2.60
2019-01-30T17:34:58.508Z,2.50
2019-01-30T17:37:28.826Z,2.50
2019-01-30T17:39:59.223Z,2.60
2019-01-30T17:42:29.549Z,2.60
2019-01-30T17:44:59.904Z,2.60
2019-01-30T17:47:30.271Z,2.70
2019-01-30T17:50:00.634Z,2.70
2019-01-30T17:52:31.025Z,2.70
2019-01-30T17:55:04.340Z,2.70
2019-01-30T17:57:33.309Z,2.80
2019-01-30T18:00:08.941Z,2.70
2019-01-30T18:02:39.268Z,2.70
2019-01-30T18:05:09.651Z,2.60
2019-01-30T18:07:40.026Z,2.60
2019-01-30T18:10:11.430Z,2.50
2019-01-30T18:12:41.766Z,2.50
2019-01-30T18:15:12.277Z,2.60
2019-01-30T18:17:42.588Z,2.50
2019-01-30T18:20:14.580Z,2.50
2019-01-30T18:22:44.878Z,2.40
2019-01-30T18:25:15.896Z,2.40
2019-01-30T18:27:46.870Z,2.40
2019-01-30T18:30:18.445Z,2.40
2019-01-30T18:32:48.806Z,2.50
2019-01-30T18:35:19.360Z,2.40
2019-01-30T18:37:49.723Z,2.40
2019-01-30T18:40:22.257Z,2.40
2019-01-30T18:42:52.589Z,2.40
2019-01-30T18:45:24.454Z,2.40
2019-01-30T18:47:55.218Z,2.50
2019-01-30T18:50:26.810Z,2.50
2019-01-30T18:52:57.351Z,2.50
2019-01-30T18:55:27.726Z,2.50
2019-01-30T18:57:58.030Z,2.50
2019-01-30T19:00:32.395Z,2.40
2019-01-30T19:03:03.953Z,2.50
2019-01-30T19:05:34.617Z,2.50
2019-01-30T19:08:05.146Z,2.40
2019-01-30T19:10:35.809Z,2.40
2019-01-30T19:13:06.302Z,2.50
2019-01-30T19:15:36.712Z,2.50
2019-01-30T19:18:07.846Z,2.50
2019-01-30T19:20:40.059Z,2.40
2019-01-30T19:23:10.411Z,2.40
2019-01-30T19:25:41.053Z,2.40
2019-01-30T19:28:11.400Z,2.40
2019-01-30T19:30:45.138Z,2.40
2019-01-30T19:33:14.902Z,2.50
2019-01-30T19:35:45.219Z,2.50
2019-01-30T19:38:15.603Z,2.60
2019-01-30T19:40:47.010Z,2.60
2019-01-30T19:43:17.319Z,2.60
2019-01-30T19:45:47.710Z,2.60
2019-01-30T19:48:18.026Z,2.60
2019-01-30T19:50:48.388Z,2.60
2019-01-30T19:53:18.778Z,2.60
2019-01-30T19:55:49.119Z,2.60
2019-01-30T19:58:19.530Z,2.70
2019-01-30T20:00:50.398Z,2.70
2019-01-30T20:03:26.825Z,2.70
2019-01-30T20:05:57.141Z,2.70
2019-01-30T20:08:27.519Z,2.60
2019-01-30T20:10:57.873Z,2.60
2019-01-30T20:13:28.211Z,2.60
2019-01-30T20:15:58.651Z,2.70
2019-01-30T20:18:29.161Z,2.70
2019-01-30T20:20:59.492Z,2.70
2019-01-30T20:23:29.822Z,2.60
2019-01-30T20:26:00.200Z,2.70
2019-01-30T20:28:30.573Z,2.70
2019-01-30T20:31:02.067Z,2.70
2019-01-30T20:33:32.433Z,2.70
2019-01-30T20:36:02.802Z,2.60
2019-01-30T20:38:33.158Z,2.60
2019-01-30T20:41:03.675Z,2.60
2019-01-30T20:43:34.034Z,2.60
2019-01-30T20:46:04.388Z,2.60
2019-01-30T20:48:45.576Z,2.60
2019-01-30T20:51:07.664Z,2.60
2019-01-30T20:53:38.042Z,2.60
2019-01-30T20:56:08.376Z,2.60
2019-01-30T20:58:38.694Z,2.50
2019-01-30T21:01:10.444Z,2.50
2019-01-30T21:03:40.806Z,2.40
2019-01-30T21:06:11.112Z,2.40
2019-01-30T21:08:41.442Z,2.40
2019-01-30T21:11:11.769Z,2.40
2019-01-30T21:13:42.080Z,2.30
2019-01-30T21:16:12.402Z,2.40
2019-01-30T21:18:42.679Z,2.30
2019-01-30T21:21:13.040Z,2.30
2019-01-30T21:23:43.348Z,2.30
2019-01-30T21:26:13.840Z,2.30
2019-01-30T21:28:44.185Z,2.30
2019-01-30T21:31:14.835Z,2.30
2019-01-30T21:33:45.184Z,2.40
2019-01-30T21:36:15.516Z,2.40
2019-01-30T21:38:45.909Z,2.40
2019-01-30T21:41:16.219Z,2.50
2019-01-30T21:43:46.532Z,2.50
2019-01-30T21:46:17.120Z,2.40
2019-01-30T21:48:47.568Z,2.40
2019-01-30T21:51:17.884Z,2.40
2019-01-30T21:53:48.218Z,2.50
2019-01-30T21:56:18.644Z,2.40
2019-01-30T21:58:48.964Z,2.40
2019-01-30T22:01:20.793Z,2.40
2019-01-30T22:03:51.184Z,2.50
2019-01-30T22:06:21.498Z,2.40
2019-01-30T22:08:51.874Z,2.30
2019-01-30T22:11:22.239Z,2.30
2019-01-30T22:13:52.580Z,2.30
2019-01-30T22:16:22.928Z,2.30
2019-01-30T22:18:53.264Z,2.30
2019-01-30T22:21:23.604Z,2.30
2019-01-30T22:24:05.039Z,2.20
2019-01-30T22:26:25.873Z,2.20
2019-01-30T22:28:56.170Z,2.20
2019-01-30T22:31:27.360Z,2.20
2019-01-30T22:33:57.679Z,2.20
2019-01-30T22:36:28.026Z,2.20
2019-01-30T22:38:58.432Z,2.20
2019-01-30T22:41:28.806Z,2.20
2019-01-30T22:43:59.136Z,2.20
2019-01-30T22:46:29.540Z,2.20
2019-01-30T22:48:59.920Z,2.30
2019-01-30T22:51:30.277Z,2.30
2019-01-30T22:54:00.617Z,2.20
2019-01-30T22:56:30.984Z,2.20
2019-01-30T22:59:01.315Z,2.20
2019-01-30T23:01:51.520Z,2.20
2019-01-30T23:05:20.438Z,2.20
2019-01-30T23:08:31.459Z,2.20
2019-01-30T23:11:38.438Z,2.20
2019-01-30T23:14:27.836Z,2.10
2019-01-30T23:17:33.783Z,2.00
2019-01-30T23:20:14.564Z,2.10
2019-01-30T23:23:31.322Z,2.00
2019-01-30T23:26:32.008Z,2.10
2019-01-30T23:29:36.851Z,2.10
2019-01-30T23:32:38.390Z,2.00
2019-01-30T23:35:52.537Z,2.10
2019-01-30T23:39:17.876Z,2.10
2019-01-30T23:42:39.629Z,2.10
2019-01-30T23:45:31.922Z,2.10
2019-01-30T23:48:26.438Z,2.10
2019-01-30T23:51:16.167Z,2.10
2019-01-30T23:54:08.532Z,2.10
2019-01-30T23:57:32.684Z,2.10
